Cape Endless — V7WB3 — position and weather

sailwx.info

Track history (hours):
 
Tides and Currents Weather Stations Pressure Air Temp Water Temp Dewpoint Dewpoint Depression Visibility Wind Speed Wind Dir Waves Ship Positions

Cape Endless

Last reported at 2015-Aug-11 03:17 UTC. Time now 2015-Aug-30 22:35 UTC.
Position N 34°04' W 119°17'.
Warning: this ship's position is 19 days out of date.

Length 243 m; draft 14.5 m.

Type: Ship. MMSI: 538006185.

Date/timePositionNaut miles runAvg speedWind from/ knotsBaromVisibWave heightAir tempDewpointWater temp
2015-Aug-11 03:17N 34°04' W 119°17'3910.2
2015-Aug-10 23:25N 33°52' W 118°32'3 2.9
2015-Aug-10 22:30N 33°54' W 118°29'0 0.0
2015-Aug-10 21:30N 33°54' W 118°29'0 0.0
2015-Aug-10 20:33N 33°54' W 118°29'0 0.0
2015-Aug-10 19:33N 33°54' W 118°29'0 0.0
2015-Aug-10 18:33N 33°54' W 118°29'0 0.0
2015-Aug-10 17:30N 33°54' W 118°29'0 0.0
2015-Aug-10 16:33N 33°54' W 118°29'0 0.0
2015-Aug-10 15:30N 33°54' W 118°29'0 0.0
2015-Aug-10 14:31N 33°54' W 118°29'2 1.8
2015-Aug-10 13:33N 33°55' W 118°27'0 0.0
2015-Aug-09 22:17N 33°55' W 118°27'0 0.0
2015-Aug-09 20:32N 33°55' W 118°27'0 0.0
2015-Aug-09 19:33N 33°55' W 118°27'0 0.0
2015-Aug-09 18:32N 33°55' W 118°27'0 0.0
2015-Aug-09 17:32N 33°55' W 118°27'0 0.0
2015-Aug-09 16:08N 33°55' W 118°27'0 0.0
2015-Aug-09 09:05N 33°55' W 118°27'0 0.0
2015-Aug-08 22:29N 33°55' W 118°27'0 0.0
2015-Aug-08 20:05N 33°55' W 118°27'0 0.0
2015-Aug-08 16:17N 33°55' W 118°27'0 0.4
2015-Aug-08 15:34N 33°55' W 118°27'1 1.3
2015-Aug-08 14:33N 33°53' W 118°28'1 1.2
2015-Aug-08 13:33N 33°54' W 118°30'0 0.4
2015-Aug-08 12:31N 33°54' W 118°29'0 0.0
2015-Aug-08 11:28N 33°54' W 118°30'0 0.0
2015-Aug-08 09:25N 33°54' W 118°30'0 0.1
2015-Aug-08 08:31N 33°54' W 118°30'0 0.1
2015-Aug-08 07:31N 33°54' W 118°30'0 0.1
2015-Aug-08 03:31N 33°54' W 118°29'0 0.0
2015-Aug-08 02:31N 33°54' W 118°29'0 0.1
2015-Aug-08 01:31N 33°54' W 118°29'13 6.0
2015-Aug-07 23:19N 33°41' W 118°27'911.3
2015-Aug-07 22:33N 33°38' W 118°17'8 8.2
2015-Aug-07 21:34N 33°39' W 118°07'0 0.3
2015-Aug-07 20:22N 33°39' W 118°07'0 0.0
2015-Aug-07 19:31N 33°39' W 118°07'0 0.0
2015-Aug-07 18:25N 33°39' W 118°07'0 0.0
2015-Aug-07 17:07N 33°39' W 118°07'0 0.0
2015-Aug-07 16:31N 33°39' W 118°07'0 0.0
2015-Aug-07 15:28N 33°39' W 118°07'0 0.0
2015-Aug-07 14:19N 33°39' W 118°07'0 0.1
2015-Aug-07 13:31N 33°39' W 118°07'0 0.0
2015-Aug-07 12:28N 33°39' W 118°07'0 0.1
2015-Aug-07 11:31N 33°39' W 118°07'0 0.0
2015-Aug-07 10:31N 33°39' W 118°07'0 0.0
2015-Aug-07 09:22N 33°39' W 118°07'0 0.0
2015-Aug-07 08:31N 33°39' W 118°07'0 0.0
2015-Aug-07 07:25N 33°39' W 118°07'0 0.1
2015-Aug-07 06:31N 33°39' W 118°07'0 0.1
2015-Aug-07 05:31N 33°39' W 118°07'0 0.0
2015-Aug-07 04:22N 33°39' W 118°07'0 0.0
2015-Aug-07 03:31N 33°39' W 118°07'0 0.1
2015-Aug-07 02:31N 33°39' W 118°07'0 0.0
2015-Aug-07 01:31N 33°39' W 118°07'0 0.0
2015-Aug-07 00:31N 33°39' W 118°07'0 0.0
2015-Aug-06 23:31N 33°39' W 118°07'0 0.0
2015-Aug-06 22:31N 33°39' W 118°07'0 0.0
2015-Aug-06 21:31N 33°39' W 118°07'0 0.0
2015-Aug-06 20:28N 33°39' W 118°07'0 0.0
2015-Aug-06 19:31N 33°39' W 118°07'0 0.0
2015-Aug-06 18:19N 33°39' W 118°07'0 0.0
2015-Aug-06 15:28N 33°39' W 118°07'0 0.0
2015-Aug-06 14:10N 33°39' W 118°07'0 0.0
2015-Aug-06 13:32N 33°39' W 118°07'0 0.1
2015-Aug-06 12:31N 33°39' W 118°07'5 4.8
2015-Aug-06 11:30N 33°43' W 118°11'1 1.5
2015-Aug-06 10:31N 33°44' W 118°12'0 0.0
2015-Aug-06 09:31N 33°44' W 118°12'0 0.0
2015-Aug-06 08:31N 33°44' W 118°12'0 0.1
2015-Aug-06 07:31N 33°44' W 118°12'0 0.0
2015-Aug-06 06:31N 33°44' W 118°12'0 0.0
2015-Aug-06 05:31N 33°44' W 118°12'0 0.0
2015-Aug-06 04:31N 33°44' W 118°12'0 0.0
2015-Aug-06 03:31N 33°44' W 118°12'0 0.0
2015-Aug-06 02:31N 33°44' W 118°12'0 0.0
2015-Aug-06 01:31N 33°44' W 118°12'0 0.0
2015-Aug-06 00:31N 33°44' W 118°12'0 0.0
2015-Aug-05 23:31N 33°44' W 118°12'0 0.0
2015-Aug-05 22:31N 33°44' W 118°12'0 0.1
2015-Aug-05 21:31N 33°44' W 118°12'2 2.6
2015-Aug-05 20:33N 33°42' W 118°11'9 8.8
2015-Aug-05 19:33N 33°36' W 118°19'1313.1
2015-Aug-05 18:33N 33°42' W 118°33'1313.0
2015-Aug-05 17:33N 33°48' W 118°46'9 8.6
2015-Aug-05 16:33N 33°53' W 118°55'1313.4
2015-Aug-05 15:33N 33°59' W 119°09'1414.1
2015-Aug-05 14:34N 34°04' W 119°25'1414.3
2015-Aug-05 13:33N 34°08' W 119°42'4013.2
2015-Aug-05 10:32N 34°19' W 120°29'1813.1
2015-Aug-05 09:11N 34°24' W 120°49'812.5
2015-Aug-05 08:33N 34°25' W 120°59'1612.9
2015-Aug-05 07:19N 34°28' W 121°18'1513.2
2015-Aug-05 06:11N 34°30' W 121°36'913.1
2015-Aug-05 05:32N 34°32' W 121°46'1613.7
2015-Aug-05 04:21N 34°34' W 122°05'1012.1
2015-Aug-05 03:33N 34°41' W 122°14'1413.7
2015-Aug-05 02:33N 34°54' W 122°20'1413.5
2015-Aug-05 01:33N 35°06' W 122°27'1313.5
2015-Aug-05 00:33N 35°18' W 122°34'1413.7
2015-Aug-04 23:33N 35°31' W 122°40'1413.5
2015-Aug-04 22:31N 35°44' W 122°47'1413.3
2015-Aug-04 21:30N 35°56' W 122°54'1313.4
2015-Aug-04 20:33N 36°08' W 123°00'2813.6
2015-Aug-04 18:31N 36°33' W 123°14'1313.2
2015-Aug-04 17:33N 36°45' W 123°21'1413.4
2015-Aug-04 16:32N 36°57' W 123°27'1313.3
2015-Aug-04 15:32N 37°09' W 123°34'1110.6
2015-Aug-04 14:33N 37°20' W 123°31'1313.4
2015-Aug-04 13:33N 37°27' W 123°17'1313.4
2015-Aug-04 12:33N 37°35' W 123°03'1413.6
2015-Aug-04 11:33N 37°42' W 122°49'1111.0
2015-Aug-04 10:33N 37°47' W 122°36'9 8.9
2015-Aug-04 09:34N 37°51' W 122°26'5 4.9
2015-Aug-04 08:33N 37°55' W 122°25'0 0.3
2015-Aug-04 07:31N 37°55' W 122°25'0 0.0
2015-Aug-04 06:31N 37°55' W 122°25'0 0.0
2015-Aug-04 05:31N 37°55' W 122°25'0 0.0
2015-Aug-03 22:31N 37°55' W 122°25'0 0.0
2015-Aug-03 21:28N 37°55' W 122°25'0 0.0
2015-Aug-03 20:31N 37°55' W 122°25'0 0.0
2015-Aug-03 19:31N 37°55' W 122°25'0 0.0
2015-Aug-03 18:31N 37°55' W 122°25'0 0.0
2015-Aug-03 17:31N 37°55' W 122°25'0 0.0
2015-Aug-03 16:31N 37°55' W 122°25'0 0.0
2015-Aug-03 15:31N 37°55' W 122°25'0 0.0
2015-Aug-03 14:31N 37°55' W 122°25'0 0.0
2015-Aug-03 13:31N 37°55' W 122°25'0 0.0
2015-Aug-03 12:31N 37°55' W 122°25'0 0.0
2015-Aug-03 11:31N 37°55' W 122°25'0 0.0
2015-Aug-03 10:31N 37°55' W 122°25'0 0.0
2015-Aug-03 09:31N 37°55' W 122°25'0 0.0
2015-Aug-03 08:28N 37°55' W 122°25'0 0.0
2015-Aug-03 07:31N 37°55' W 122°25'0 0.0
2015-Aug-03 06:31N 37°55' W 122°25'0 0.0
2015-Aug-03 05:31N 37°55' W 122°25'0 0.0
2015-Aug-03 04:31N 37°55' W 122°25'0 0.0
2015-Aug-03 03:31N 37°55' W 122°25'0 0.0
2015-Aug-03 02:34N 37°55' W 122°25'0 0.0
2015-Aug-03 01:31N 37°55' W 122°25'0 0.0
2015-Aug-03 00:31N 37°55' W 122°25'0 0.0
2015-Aug-02 23:24N 37°55' W 122°25'0 0.0
2015-Aug-02 22:34N 37°55' W 122°25'0 0.0
2015-Aug-02 21:34N 37°55' W 122°25'0 0.0
2015-Aug-02 20:33N 37°55' W 122°25'0 0.0
2015-Aug-02 19:31N 37°55' W 122°25'0 0.0
2015-Aug-02 18:34N 37°55' W 122°25'0 0.0
2015-Aug-02 17:33N 37°55' W 122°25'0 0.0
2015-Aug-02 16:31N 37°55' W 122°25'0 0.0
2015-Aug-02 15:33N 37°55' W 122°25'0 0.0
2015-Aug-02 14:28N 37°55' W 122°25'0 0.0
2015-Aug-02 13:33N 37°55' W 122°25'0 0.0
2015-Aug-02 12:28N 37°55' W 122°25'0 0.0
2015-Aug-02 11:33N 37°55' W 122°25'0 0.0
2015-Aug-02 10:33N 37°55' W 122°25'0 0.0
2015-Aug-02 09:33N 37°55' W 122°25'0 0.0
2015-Aug-02 08:30N 37°55' W 122°25'0 0.0
2015-Aug-02 07:33N 37°55' W 122°25'0 0.0
2015-Aug-02 06:33N 37°55' W 122°25'0 0.0
2015-Aug-02 05:33N 37°55' W 122°25'0 0.0
2015-Aug-02 04:33N 37°55' W 122°25'0 0.0
2015-Aug-02 03:33N 37°55' W 122°25'0 0.0
2015-Aug-02 02:33N 37°55' W 122°25'0 0.0
2015-Aug-02 01:33N 37°55' W 122°25'0 0.0
2015-Aug-02 00:30N 37°55' W 122°25'0 0.0
2015-Aug-01 23:33N 37°55' W 122°25'0 0.0
2015-Aug-01 22:33N 37°55' W 122°25'0 0.0
2015-Aug-01 21:33N 37°55' W 122°25'0 0.0
2015-Aug-01 20:27N 37°55' W 122°25'0 0.0
2015-Aug-01 19:33N 37°55' W 122°25'0 0.0
2015-Aug-01 18:33N 37°55' W 122°25'0 0.0
2015-Aug-01 17:33N 37°55' W 122°25'0 0.0
2015-Aug-01 16:30N 37°55' W 122°25'0 0.0
2015-Aug-01 15:09N 37°55' W 122°25'0 0.0
2015-Aug-01 14:33N 37°55' W 122°25'0 0.0
2015-Aug-01 13:24N 37°55' W 122°25'0 0.0
2015-Aug-01 12:33N 37°55' W 122°25'0 0.0
2015-Aug-01 11:33N 37°55' W 122°25'0 0.0
2015-Aug-01 10:33N 37°55' W 122°25'0 0.0
2015-Aug-01 09:33N 37°55' W 122°25'0 0.0
2015-Aug-01 08:33N 37°55' W 122°25'0 0.0
2015-Aug-01 07:33N 37°55' W 122°25'0 0.0
2015-Aug-01 06:33N 37°55' W 122°25'0 0.0
2015-Aug-01 05:33N 37°55' W 122°25'0 0.0
2015-Aug-01 04:33N 37°55' W 122°25'0 0.0
2015-Aug-01 03:33N 37°55' W 122°25'  
Track history (hours):
 
Tides and Currents Weather Stations Pressure Air Temp Water Temp Dewpoint Dewpoint Depression Visibility Wind Speed Wind Dir Waves Ship Positions

Cape Endless

Last reported at 2015-Aug-11 03:17 UTC. Time now 2015-Aug-30 22:35 UTC.
Position N 34°04' W 119°17'.
Warning: this ship's position is 19 days out of date.

Length 243 m; draft 14.5 m.

Type: Ship. MMSI: 538006185.

Date/timePositionNaut miles runAvg speedWind from/ knotsBaromVisibWave heightAir tempDewpointWater temp
2015-Aug-11 03:17N 34°04' W 119°17'3910.2
2015-Aug-10 23:25N 33°52' W 118°32'3 2.9
2015-Aug-10 22:30N 33°54' W 118°29'0 0.0
2015-Aug-10 21:30N 33°54' W 118°29'0 0.0
2015-Aug-10 20:33N 33°54' W 118°29'0 0.0
2015-Aug-10 19:33N 33°54' W 118°29'0 0.0
2015-Aug-10 18:33N 33°54' W 118°29'0 0.0
2015-Aug-10 17:30N 33°54' W 118°29'0 0.0
2015-Aug-10 16:33N 33°54' W 118°29'0 0.0
2015-Aug-10 15:30N 33°54' W 118°29'0 0.0
2015-Aug-10 14:31N 33°54' W 118°29'2 1.8
2015-Aug-10 13:33N 33°55' W 118°27'0 0.0
2015-Aug-09 22:17N 33°55' W 118°27'0 0.0
2015-Aug-09 20:32N 33°55' W 118°27'0 0.0
2015-Aug-09 19:33N 33°55' W 118°27'0 0.0
2015-Aug-09 18:32N 33°55' W 118°27'0 0.0
2015-Aug-09 17:32N 33°55' W 118°27'0 0.0
2015-Aug-09 16:08N 33°55' W 118°27'0 0.0
2015-Aug-09 09:05N 33°55' W 118°27'0 0.0
2015-Aug-08 22:29N 33°55' W 118°27'0 0.0
2015-Aug-08 20:05N 33°55' W 118°27'0 0.0
2015-Aug-08 16:17N 33°55' W 118°27'0 0.4
2015-Aug-08 15:34N 33°55' W 118°27'1 1.3
2015-Aug-08 14:33N 33°53' W 118°28'1 1.2
2015-Aug-08 13:33N 33°54' W 118°30'0 0.4
2015-Aug-08 12:31N 33°54' W 118°29'0 0.0
2015-Aug-08 11:28N 33°54' W 118°30'0 0.0
2015-Aug-08 09:25N 33°54' W 118°30'0 0.1
2015-Aug-08 08:31N 33°54' W 118°30'0 0.1
2015-Aug-08 07:31N 33°54' W 118°30'0 0.1
2015-Aug-08 03:31N 33°54' W 118°29'0 0.0
2015-Aug-08 02:31N 33°54' W 118°29'0 0.1
2015-Aug-08 01:31N 33°54' W 118°29'13 6.0
2015-Aug-07 23:19N 33°41' W 118°27'911.3
2015-Aug-07 22:33N 33°38' W 118°17'8 8.2
2015-Aug-07 21:34N 33°39' W 118°07'0 0.3
2015-Aug-07 20:22N 33°39' W 118°07'0 0.0
2015-Aug-07 19:31N 33°39' W 118°07'0 0.0
2015-Aug-07 18:25N 33°39' W 118°07'0 0.0
2015-Aug-07 17:07N 33°39' W 118°07'0 0.0
2015-Aug-07 16:31N 33°39' W 118°07'0 0.0
2015-Aug-07 15:28N 33°39' W 118°07'0 0.0
2015-Aug-07 14:19N 33°39' W 118°07'0 0.1
2015-Aug-07 13:31N 33°39' W 118°07'0 0.0
2015-Aug-07 12:28N 33°39' W 118°07'0 0.1
2015-Aug-07 11:31N 33°39' W 118°07'0 0.0
2015-Aug-07 10:31N 33°39' W 118°07'0 0.0
2015-Aug-07 09:22N 33°39' W 118°07'0 0.0
2015-Aug-07 08:31N 33°39' W 118°07'0 0.0
2015-Aug-07 07:25N 33°39' W 118°07'0 0.1
2015-Aug-07 06:31N 33°39' W 118°07'0 0.1
2015-Aug-07 05:31N 33°39' W 118°07'0 0.0
2015-Aug-07 04:22N 33°39' W 118°07'0 0.0
2015-Aug-07 03:31N 33°39' W 118°07'0 0.1
2015-Aug-07 02:31N 33°39' W 118°07'0 0.0
2015-Aug-07 01:31N 33°39' W 118°07'0 0.0
2015-Aug-07 00:31N 33°39' W 118°07'0 0.0
2015-Aug-06 23:31N 33°39' W 118°07'0 0.0
2015-Aug-06 22:31N 33°39' W 118°07'0 0.0
2015-Aug-06 21:31N 33°39' W 118°07'0 0.0
2015-Aug-06 20:28N 33°39' W 118°07'0 0.0
2015-Aug-06 19:31N 33°39' W 118°07'0 0.0
2015-Aug-06 18:19N 33°39' W 118°07'0 0.0
2015-Aug-06 15:28N 33°39' W 118°07'0 0.0
2015-Aug-06 14:10N 33°39' W 118°07'0 0.0
2015-Aug-06 13:32N 33°39' W 118°07'0 0.1
2015-Aug-06 12:31N 33°39' W 118°07'5 4.8
2015-Aug-06 11:30N 33°43' W 118°11'1 1.5
2015-Aug-06 10:31N 33°44' W 118°12'0 0.0
2015-Aug-06 09:31N 33°44' W 118°12'0 0.0
2015-Aug-06 08:31N 33°44' W 118°12'0 0.1
2015-Aug-06 07:31N 33°44' W 118°12'0 0.0
2015-Aug-06 06:31N 33°44' W 118°12'0 0.0
2015-Aug-06 05:31N 33°44' W 118°12'0 0.0
2015-Aug-06 04:31N 33°44' W 118°12'0 0.0
2015-Aug-06 03:31N 33°44' W 118°12'0 0.0
2015-Aug-06 02:31N 33°44' W 118°12'0 0.0
2015-Aug-06 01:31N 33°44' W 118°12'0 0.0
2015-Aug-06 00:31N 33°44' W 118°12'0 0.0
2015-Aug-05 23:31N 33°44' W 118°12'0 0.0
2015-Aug-05 22:31N 33°44' W 118°12'0 0.1
2015-Aug-05 21:31N 33°44' W 118°12'2 2.6
2015-Aug-05 20:33N 33°42' W 118°11'9 8.8
2015-Aug-05 19:33N 33°36' W 118°19'1313.1
2015-Aug-05 18:33N 33°42' W 118°33'1313.0
2015-Aug-05 17:33N 33°48' W 118°46'9 8.6
2015-Aug-05 16:33N 33°53' W 118°55'1313.4
2015-Aug-05 15:33N 33°59' W 119°09'1414.1
2015-Aug-05 14:34N 34°04' W 119°25'1414.3
2015-Aug-05 13:33N 34°08' W 119°42'4013.2
2015-Aug-05 10:32N 34°19' W 120°29'1813.1
2015-Aug-05 09:11N 34°24' W 120°49'812.5
2015-Aug-05 08:33N 34°25' W 120°59'1612.9
2015-Aug-05 07:19N 34°28' W 121°18'1513.2
2015-Aug-05 06:11N 34°30' W 121°36'913.1
2015-Aug-05 05:32N 34°32' W 121°46'1613.7
2015-Aug-05 04:21N 34°34' W 122°05'1012.1
2015-Aug-05 03:33N 34°41' W 122°14'1413.7
2015-Aug-05 02:33N 34°54' W 122°20'1413.5
2015-Aug-05 01:33N 35°06' W 122°27'1313.5
2015-Aug-05 00:33N 35°18' W 122°34'1413.7
2015-Aug-04 23:33N 35°31' W 122°40'1413.5
2015-Aug-04 22:31N 35°44' W 122°47'1413.3
2015-Aug-04 21:30N 35°56' W 122°54'1313.4
2015-Aug-04 20:33N 36°08' W 123°00'2813.6
2015-Aug-04 18:31N 36°33' W 123°14'1313.2
2015-Aug-04 17:33N 36°45' W 123°21'1413.4
2015-Aug-04 16:32N 36°57' W 123°27'1313.3
2015-Aug-04 15:32N 37°09' W 123°34'1110.6
2015-Aug-04 14:33N 37°20' W 123°31'1313.4
2015-Aug-04 13:33N 37°27' W 123°17'1313.4
2015-Aug-04 12:33N 37°35' W 123°03'1413.6
2015-Aug-04 11:33N 37°42' W 122°49'1111.0
2015-Aug-04 10:33N 37°47' W 122°36'9 8.9
2015-Aug-04 09:34N 37°51' W 122°26'5 4.9
2015-Aug-04 08:33N 37°55' W 122°25'0 0.3
2015-Aug-04 07:31N 37°55' W 122°25'0 0.0
2015-Aug-04 06:31N 37°55' W 122°25'0 0.0
2015-Aug-04 05:31N 37°55' W 122°25'0 0.0
2015-Aug-03 22:31N 37°55' W 122°25'0 0.0
2015-Aug-03 21:28N 37°55' W 122°25'0 0.0
2015-Aug-03 20:31N 37°55' W 122°25'0 0.0
2015-Aug-03 19:31N 37°55' W 122°25'0 0.0
2015-Aug-03 18:31N 37°55' W 122°25'0 0.0
2015-Aug-03 17:31N 37°55' W 122°25'0 0.0
2015-Aug-03 16:31N 37°55' W 122°25'0 0.0
2015-Aug-03 15:31N 37°55' W 122°25'0 0.0
2015-Aug-03 14:31N 37°55' W 122°25'0 0.0
2015-Aug-03 13:31N 37°55' W 122°25'0 0.0
2015-Aug-03 12:31N 37°55' W 122°25'0 0.0
2015-Aug-03 11:31N 37°55' W 122°25'0 0.0
2015-Aug-03 10:31N 37°55' W 122°25'0 0.0
2015-Aug-03 09:31N 37°55' W 122°25'0 0.0
2015-Aug-03 08:28N 37°55' W 122°25'0 0.0
2015-Aug-03 07:31N 37°55' W 122°25'0 0.0
2015-Aug-03 06:31N 37°55' W 122°25'0 0.0
2015-Aug-03 05:31N 37°55' W 122°25'0 0.0
2015-Aug-03 04:31N 37°55' W 122°25'0 0.0
2015-Aug-03 03:31N 37°55' W 122°25'0 0.0
2015-Aug-03 02:34N 37°55' W 122°25'0 0.0
2015-Aug-03 01:31N 37°55' W 122°25'0 0.0
2015-Aug-03 00:31N 37°55' W 122°25'0 0.0
2015-Aug-02 23:24N 37°55' W 122°25'0 0.0
2015-Aug-02 22:34N 37°55' W 122°25'0 0.0
2015-Aug-02 21:34N 37°55' W 122°25'0 0.0
2015-Aug-02 20:33N 37°55' W 122°25'0 0.0
2015-Aug-02 19:31N 37°55' W 122°25'0 0.0
2015-Aug-02 18:34N 37°55' W 122°25'0 0.0
2015-Aug-02 17:33N 37°55' W 122°25'0 0.0
2015-Aug-02 16:31N 37°55' W 122°25'0 0.0
2015-Aug-02 15:33N 37°55' W 122°25'0 0.0
2015-Aug-02 14:28N 37°55' W 122°25'0 0.0
2015-Aug-02 13:33N 37°55' W 122°25'0 0.0
2015-Aug-02 12:28N 37°55' W 122°25'0 0.0
2015-Aug-02 11:33N 37°55' W 122°25'0 0.0
2015-Aug-02 10:33N 37°55' W 122°25'0 0.0
2015-Aug-02 09:33N 37°55' W 122°25'0 0.0
2015-Aug-02 08:30N 37°55' W 122°25'0 0.0
2015-Aug-02 07:33N 37°55' W 122°25'0 0.0
2015-Aug-02 06:33N 37°55' W 122°25'0 0.0
2015-Aug-02 05:33N 37°55' W 122°25'0 0.0
2015-Aug-02 04:33N 37°55' W 122°25'0 0.0
2015-Aug-02 03:33N 37°55' W 122°25'0 0.0
2015-Aug-02 02:33N 37°55' W 122°25'0 0.0
2015-Aug-02 01:33N 37°55' W 122°25'0 0.0
2015-Aug-02 00:30N 37°55' W 122°25'0 0.0
2015-Aug-01 23:33N 37°55' W 122°25'0 0.0
2015-Aug-01 22:33N 37°55' W 122°25'0 0.0
2015-Aug-01 21:33N 37°55' W 122°25'0 0.0
2015-Aug-01 20:27N 37°55' W 122°25'0 0.0
2015-Aug-01 19:33N 37°55' W 122°25'0 0.0
2015-Aug-01 18:33N 37°55' W 122°25'0 0.0
2015-Aug-01 17:33N 37°55' W 122°25'0 0.0
2015-Aug-01 16:30N 37°55' W 122°25'0 0.0
2015-Aug-01 15:09N 37°55' W 122°25'0 0.0
2015-Aug-01 14:33N 37°55' W 122°25'0 0.0
2015-Aug-01 13:24N 37°55' W 122°25'0 0.0
2015-Aug-01 12:33N 37°55' W 122°25'0 0.0
2015-Aug-01 11:33N 37°55' W 122°25'0 0.0
2015-Aug-01 10:33N 37°55' W 122°25'0 0.0
2015-Aug-01 09:33N 37°55' W 122°25'0 0.0
2015-Aug-01 08:33N 37°55' W 122°25'0 0.0
2015-Aug-01 07:33N 37°55' W 122°25'0 0.0
2015-Aug-01 06:33N 37°55' W 122°25'0 0.0
2015-Aug-01 05:33N 37°55' W 122°25'0 0.0
2015-Aug-01 04:33N 37°55' W 122°25'0 0.0
2015-Aug-01 03:33N 37°55' W 122°25'  

Dump ship's entire track history